Jacksonville, FL (32257)

4:21 PM EST on January 16, 2018 (GMT -0500)
Mallard Cove | | Change Station
Active Advisory: Hard Freeze Watch

Elev 33 ft 30.19 °N, 81.58 °W | Updated 8 seconds ago

Partly Cloudy
Partly Cloudy
61.2 °F
Feels Like 61.2 °F
N
2.2
Wind Variable Wind from SE
Gusts 2.2 mph

Today
High -- | Low -- °F
--% Chance of Precip.
Yesterday
High -- | Low -- °F
Precip. -- in
Pressure 30.32 in
Visibility 10.0 miles
Clouds Few 3000 ft
Mostly Cloudy 25000 ft
Dew Point 48 °F
Humidity 62%
Rainfall 0.00 in
Snow Depth Not available.
7:23 AM 5:49 PM
Waning Crescent, 0% visible
METAR KNIP 162053Z 09005KT 10SM FEW030 BKN250 16/07 A3034 RMK AO2 SLP267 T01610072 56023 $
Pressure 30.32 in
Visibility 10.0 miles
Clouds Few 3000 ft
Mostly Cloudy 25000 ft
Dew Point 48 °F
Humidity 62%
Rainfall 0.00 in
Snow Depth Not available.
7:23 AM 5:49 PM
Waning Crescent, 0% visible
METAR KNIP 162053Z 09005KT 10SM FEW030 BKN250 16/07 A3034 RMK AO2 SLP267 T01610072 56023 $

Get Your Daily Forecast Email!

Thanks for signing up!

Be on the lookout for a verification email in your inbox.

You'll start receiving severe weather alerts in your inbox..

×

10-Day Weather Forecast

Almanac

Astronomy

Jan. 16, 2018 Rise Set
Actual Time
Civil Twilight
Nautical Twilight
Astronomical Twilight
Moon
Length of Visible Light
Length of Day
Tomorrow will be .
, % of the Moon is Illuminated

Today's Extremes

State Highs State Lows

Community

WunderPhotos

Category 6

Welcome to Category 6. This is the collective home for Weather Underground's featured writeups by Dr. Jeff Masters (right), Bob Henson (left), Chris Burt, and other regular contributors.

Nearby

Air Quality

  Air Quality AQ Index Pollutant
Not available.

Snow Depth

Station Depth Elevation

Earthquake Activity

City Distance Mag. Time & Date
Minimum magnitude displayed is 2.5.

Coastal Water Temperatures

Place Temperature

Stations

Nearby Weather Stations

Station Location Temp. Windchill Dew Point Humidity Wind Precip. Elev Updated Type
                   

Watches & Warnings

Hard Freeze Watch
Issued: 1:52 PM EST Jan. 16, 2018 – National Weather Service

... Hard freeze watch in effect from Wednesday evening through
Thursday morning...

The National Weather Service in Jacksonville has issued a hard
freeze watch, which is in effect from Wednesday evening through
Thursday morning.

* Temperature... mid to upper 20s.

* Impacts... a hard freeze watch means sub-freezing temperatures
are possible. These conditions could kill crops and other
sensitive vegetation and will be hazardous to pets and
vulnerable populations.

Precautionary/preparedness actions...

A hard freeze watch means that temperatures 27 degrees or less
are possible for at least 2 hours.



Nelson